Time;durP1;ratioP1;P1;durP2;ratioP2;P2;SDS_P1;SDS_P2;PMS_P1;PMS_P2;Temp;Humidity;BMP_temperature;BMP_pressure;BME280_temperature;BME280_humidity;BME280_pressure;Samples;Min_cycle;Max_cycle;Signal;HPM_P1;HPM_P2
2023/02/16 00:01:43;;;;;;;;;22.00;20.25;;;;;21.94;36.33;101963.84;5090155;27;45398;-67
2023/02/16 00:04:16;;;;;;;;;23.50;20.75;;;;;21.94;36.37;101966.50;5096569;27;46034;-66
2023/02/16 00:06:42;;;;;;;;;27.00;22.00;;;;;21.93;36.43;101964.78;5087777;27;46894;-67
2023/02/16 00:09:07;;;;;;;;;26.00;20.75;;;;;21.91;36.24;101961.34;5093833;27;66864;-66
2023/02/16 00:14:22;;;;;;;;;26.00;23.50;;;;;21.89;36.18;101965.91;5095233;27;45539;-67
2023/02/16 00:16:48;;;;;;;;;25.25;20.25;;;;;21.89;36.37;101965.91;5093644;27;45621;-67
2023/02/16 00:19:18;;;;;;;;;27.25;20.50;;;;;21.86;36.18;101956.25;5077659;27;45399;-67
2023/02/16 00:21:44;;;;;;;;;27.00;21.50;;;;;21.88;35.88;101953.50;5093354;27;45316;-67
2023/02/16 00:24:10;;;;;;;;;25.50;22.50;;;;;21.87;36.39;101949.09;5089588;27;45393;-66
2023/02/16 00:26:35;;;;;;;;;24.25;21.75;;;;;21.88;36.16;101954.34;5089433;27;48041;-66
2023/02/16 00:29:00;;;;;;;;;25.00;22.00;;;;;21.86;35.85;101956.25;5081441;27;66170;-71
2023/02/16 00:31:30;;;;;;;;;19.00;16.50;;;;;21.87;35.80;101949.97;5091303;27;56793;-67
2023/02/16 00:33:56;;;;;;;;;27.25;20.75;;;;;21.87;36.16;101959.75;5088585;27;45476;-67
2023/02/16 00:36:21;;;;;;;;;20.75;18.75;;;;;21.87;35.55;101959.75;5074749;27;45452;-67
2023/02/16 00:38:47;;;;;;;;;4.75;1.00;;;;;21.87;35.54;101955.31;5087791;27;53791;-66
2023/02/16 00:44:02;;;;;;;;;25.00;22.25;;;;;21.86;36.01;101950.06;5087449;27;45725;-66
2023/02/16 00:46:27;;;;;;;;;21.25;20.75;;;;;21.86;36.16;101948.25;5114963;27;45514;-67
2023/02/16 00:48:52;;;;;;;;;26.00;23.50;;;;;21.83;36.30;101943.09;5091482;27;64686;-66
2023/02/16 00:51:18;;;;;;;;;25.25;23.25;;;;;21.84;35.55;101950.16;5089567;27;66070;-66
2023/02/16 00:53:43;;;;;;;;;25.25;21.50;;;;;21.81;35.99;101936.97;5095859;27;45406;-66
2023/02/16 00:56:15;;;;;;;;;21.50;18.50;;;;;21.79;35.99;101934.41;5074619;27;45553;-68
2023/02/16 00:58:40;;;;;;;;;25.00;21.00;;;;;21.83;35.99;101934.25;5081450;27;48029;-67
2023/02/16 01:01:10;;;;;;;;;23.00;19.00;;;;;21.83;36.02;101935.09;5089302;27;58121;-67
2023/02/16 01:03:36;;;;;;;;;20.75;20.75;;;;;21.78;35.91;101923.84;5108143;27;45450;-67
2023/02/16 01:11:32;;;;;;;;;21.75;19.25;;;;;21.79;35.37;101936.22;5084240;27;45456;-67
2023/02/16 01:13:57;;;;;;;;;23.25;19.75;;;;;21.77;35.43;101938.97;5072546;27;56623;-67
2023/02/16 01:16:32;;;;;;;;;21.50;18.00;;;;;21.76;35.52;101933.72;5088349;27;56297;-67
2023/02/16 01:18:58;;;;;;;;;25.00;20.75;;;;;21.76;35.46;101928.38;5071816;27;47283;-67
2023/02/16 01:21:23;;;;;;;;;21.25;18.75;;;;;21.75;35.41;101929.34;5090805;27;61895;-67
2023/02/16 01:23:48;;;;;;;;;23.00;19.00;;;;;21.77;35.81;101927.44;5085966;27;47425;-67
2023/02/16 01:26:16;;;;;;;;;23.50;19.25;;;;;21.75;35.61;101927.53;5086728;27;45428;-67
2023/02/16 01:28:43;;;;;;;;;22.00;19.25;;;;;21.75;35.82;101919.53;5075930;27;48211;-67
2023/02/16 01:31:09;;;;;;;;;21.50;20.00;;;;;21.74;35.63;101923.16;5086759;27;45370;-67
2023/02/16 01:33:35;;;;;;;;;20.75;18.75;;;;;21.74;35.60;101922.28;5086705;27;45523;-67
2023/02/16 01:36:00;;;;;;;;;22.00;19.50;;;;;21.75;35.39;101921.34;5089303;27;45577;-67
2023/02/16 01:38:27;;;;;;;;;21.50;18.50;;;;;21.74;35.86;101912.50;5073163;27;46700;-67
2023/02/16 01:41:06;;;;;;;;;23.75;21.25;;;;;21.74;35.62;101911.63;5082156;27;45365;-67
2023/02/16 01:43:43;;;;;;;;;23.50;20.00;;;;;21.73;35.35;101920.59;5085122;27;45306;-67
2023/02/16 01:46:32;;;;;;;;;20.50;19.50;;;;;21.73;35.30;101915.25;5075107;27;46318;-67
2023/02/16 01:48:58;;;;;;;;;23.25;20.50;;;;;21.69;35.11;101906.56;5087062;27;46554;-67
2023/02/16 01:51:59;;;;;;;;;24.75;20.75;;;;;21.71;35.38;101911.78;5086474;27;46020;-67
2023/02/16 01:54:50;;;;;;;;;22.50;20.00;;;;;21.71;35.17;101909.13;5079435;27;45488;-67
2023/02/16 01:57:41;;;;;;;;;25.00;21.50;;;;;21.70;35.47;101899.44;5091020;27;45394;-67
2023/02/16 02:00:12;;;;;;;;;25.75;21.25;;;;;21.68;35.68;101888.84;5090111;27;45208;-67
2023/02/16 02:02:44;;;;;;;;;25.25;22.00;;;;;21.68;35.87;101888.84;5090592;27;45484;-67
2023/02/16 02:05:36;;;;;;;;;23.25;21.75;;;;;21.66;35.30;101890.75;5089552;27;45624;-67
2023/02/16 02:08:20;;;;;;;;;19.50;17.75;;;;;21.67;35.20;101895.09;5111313;27;45480;-67
2023/02/16 02:10:56;;;;;;;;;20.75;19.25;;;;;21.63;35.08;101890.06;5090985;27;45442;-67
2023/02/16 02:13:36;;;;;;;;;23.00;19.00;;;;;21.66;35.24;101889.91;5088587;27;45855;-67
2023/02/16 02:16:03;;;;;;;;;23.00;19.25;;;;;21.64;35.67;101886.44;5089874;27;45718;-67
2023/02/16 02:18:29;;;;;;;;;19.75;17.75;;;;;21.65;35.69;101885.50;5088837;27;45463;-67
2023/02/16 02:24:53;;;;;;;;;25.50;22.00;;;;;21.63;35.48;101858.09;5090390;27;46028;-67
2023/02/16 02:27:25;;;;;;;;;27.50;20.00;;;;;21.61;35.03;101866.16;5087866;27;45390;-67
2023/02/16 02:30:10;;;;;;;;;27.25;21.75;;;;;21.57;35.42;101860.16;5084391;27;45469;-67
2023/02/16 02:32:50;;;;;;;;;22.75;18.75;;;;;21.59;35.47;101860.91;5086671;27;47099;-67
2023/02/16 02:35:37;;;;;;;;;24.00;21.00;;;;;21.59;35.48;101868.06;5089266;27;45991;-67
2023/02/16 02:38:21;;;;;;;;;21.50;19.50;;;;;21.58;35.18;101864.53;5097391;27;45307;-67
2023/02/16 02:40:53;;;;;;;;;25.00;21.00;;;;;21.56;35.13;101865.56;5088569;27;45432;-68
2023/02/16 02:43:22;;;;;;;;;21.50;18.00;;;;;21.57;35.42;101875.28;5092889;27;46173;-67
2023/02/16 02:45:51;;;;;;;;;23.00;19.50;;;;;21.54;35.57;101873.63;5095097;27;46015;-67
2023/02/16 02:48:16;;;;;;;;;20.00;17.25;;;;;21.55;35.29;101879.84;5088896;27;45524;-67
2023/02/16 02:53:48;;;;;;;;;26.75;21.00;;;;;21.53;35.20;101866.59;5092480;27;45802;-67
2023/02/16 03:01:51;;;;;;;;;22.25;18.25;;;;;21.53;35.41;101871.03;5096047;27;45394;-67
2023/02/16 03:04:20;;;;;;;;;21.00;18.00;;;;;21.52;35.52;101861.34;5091191;27;45530;-67
2023/02/16 03:06:49;;;;;;;;;21.25;19.50;;;;;21.50;34.93;101855.25;5084928;27;45346;-68
2023/02/16 03:09:15;;;;;;;;;23.00;18.75;;;;;21.51;35.34;101857.81;5093054;27;45549;-67
2023/02/16 03:14:35;;;;;;;;;19.75;19.25;;;;;21.47;35.53;101847.44;5091944;27;45686;-67
2023/02/16 03:30:54;;;;;;;;;21.50;17.75;;;;;21.43;35.05;101842.22;5091608;27;45531;-67
2023/02/16 03:33:20;;;;;;;;;18.50;15.75;;;;;21.43;34.92;101846.69;5091342;27;45423;-67
2023/02/16 03:35:46;;;;;;;;;20.50;15.50;;;;;21.42;35.48;101840.53;5093057;27;45548;-67
2023/02/16 03:38:12;;;;;;;;;18.75;17.75;;;;;21.41;35.57;101840.59;5092688;27;45481;-67
2023/02/16 03:40:39;;;;;;;;;26.75;19.50;;;;;21.42;35.03;101850.28;5092341;27;45530;-67
2023/02/16 03:43:06;;;;;;;;;20.00;18.00;;;;;21.42;35.61;101850.28;5092460;27;45536;-68
2023/02/16 03:45:34;;;;;;;;;18.50;16.50;;;;;21.39;35.11;101846.00;5087522;27;45556;-68
2023/02/16 03:48:00;;;;;;;;;17.25;16.00;;;;;21.41;34.95;101843.28;5087462;27;45270;-67
2023/02/16 03:50:26;;;;;;;;;21.75;17.25;;;;;21.36;35.25;101834.66;5085729;27;58363;-67
2023/02/16 03:52:52;;;;;;;;;19.00;17.50;;;;;21.38;35.42;101854.94;5092035;27;45574;-67
2023/02/16 03:55:17;;;;;;;;;16.00;15.00;;;;;21.36;34.90;101842.66;5080477;27;47127;-68
2023/02/16 03:57:43;;;;;;;;;16.00;15.75;;;;;21.35;35.13;101848.91;5099070;27;45305;-67
2023/02/16 04:00:09;;;;;;;;;26.00;19.50;;;;;21.37;35.20;101858.56;5088396;27;45926;-67
2023/02/16 04:02:34;;;;;;;;;21.00;17.75;;;;;21.33;35.25;101851.66;5072454;27;45432;-67
2023/02/16 04:05:00;;;;;;;;;21.25;18.75;;;;;21.35;35.31;101849.75;5084822;27;49234;-66
2023/02/16 04:07:25;;;;;;;;;15.50;15.50;;;;;21.37;34.93;101850.56;5094192;27;45369;-67
2023/02/16 04:09:51;;;;;;;;;16.75;15.50;;;;;21.34;35.46;101849.88;5087632;27;45645;-67
2023/02/16 04:15:00;;;;;;;;;20.00;17.00;;;;;21.35;34.84;101849.75;5091209;27;45479;-66
2023/02/16 04:17:26;;;;;;;;;26.50;20.50;;;;;21.32;35.45;101841.09;5094269;27;45689;-66
2023/02/16 04:19:51;;;;;;;;;18.75;15.50;;;;;21.33;34.97;101840.16;5093365;27;45480;-67
2023/02/16 04:22:16;;;;;;;;;17.75;17.00;;;;;21.31;34.96;101834.91;5087818;27;61053;-67
2023/02/16 04:24:42;;;;;;;;;18.75;16.50;;;;;21.33;34.98;101841.00;5089681;27;65523;-67
2023/02/16 04:27:07;;;;;;;;;23.00;19.00;;;;;21.31;35.31;101850.03;5090864;27;46588;-67
2023/02/16 04:29:32;;;;;;;;;20.50;19.00;;;;;21.30;35.01;101838.53;5085819;27;45414;-67
2023/02/16 04:31:58;;;;;;;;;17.75;17.00;;;;;21.30;35.06;101841.19;5094928;27;62030;-67
2023/02/16 04:34:23;;;;;;;;;17.50;14.50;;;;;21.31;35.39;101850.88;5084257;27;67660;-66
2023/02/16 04:36:49;;;;;;;;;18.50;16.00;;;;;21.31;35.25;101852.69;5087847;27;50209;-67
2023/02/16 04:39:14;;;;;;;;;17.50;16.00;;;;;21.24;34.98;101836.19;5083300;27;45524;-66
2023/02/16 04:41:39;;;;;;;;;16.25;14.25;;;;;21.27;34.98;101843.16;5092272;27;55037;-67
2023/02/16 04:44:05;;;;;;;;;17.00;14.75;;;;;21.27;35.22;101840.50;5090225;27;68801;-67
2023/02/16 04:46:30;;;;;;;;;21.25;16.50;;;;;21.27;35.41;101835.19;5088090;27;45366;-67
2023/02/16 04:48:56;;;;;;;;;21.50;16.75;;;;;21.28;34.82;101839.53;5091277;27;45421;-67
2023/02/16 04:51:22;;;;;;;;;18.00;15.25;;;;;21.26;35.10;101836.13;5075747;27;45359;-67
2023/02/16 04:53:47;;;;;;;;;19.00;16.50;;;;;21.26;35.09;101842.28;5095256;27;46131;-67
2023/02/16 04:56:13;;;;;;;;;17.75;17.75;;;;;21.23;35.38;101830.00;5083259;27;45271;-67
2023/02/16 04:58:38;;;;;;;;;20.50;15.00;;;;;21.23;34.92;101843.31;5106178;27;45984;-67
2023/02/16 05:01:04;;;;;;;;;21.25;15.00;;;;;21.20;35.25;101840.81;5101928;27;45539;-67
2023/02/16 05:03:29;;;;;;;;;16.00;14.50;;;;;21.20;35.22;101834.66;5089709;27;46198;-68
2023/02/16 05:05:55;;;;;;;;;20.00;15.75;;;;;21.23;35.29;101842.47;5088872;27;45355;-67
2023/02/16 05:08:20;;;;;;;;;20.50;14.25;;;;;21.22;35.12;101854.91;5089244;27;45515;-67
2023/02/16 05:14:40;;;;;;;;;15.50;14.00;;;;;21.19;34.76;101841.75;5088410;27;46169;-68
2023/02/16 05:16:15;;;;;;;;;21.25;18.25;;;;;21.19;35.51;101860.38;5088832;27;45491;-67
2023/02/16 05:18:40;;;;;;;;;13.25;11.75;;;;;21.19;34.79;101856.88;5120657;27;58887;-67
2023/02/16 05:23:49;;;;;;;;;16.00;13.75;;;;;21.17;34.84;101848.13;5090863;27;45663;-67
2023/02/16 05:26:15;;;;;;;;;22.50;18.75;;;;;21.19;34.88;101848.88;5082952;27;61655;-67
2023/02/16 05:28:40;;;;;;;;;18.00;15.75;;;;;21.15;35.42;101848.19;5080909;27;55192;-67
2023/02/16 05:31:05;;;;;;;;;15.25;14.00;;;;;21.18;35.25;101855.16;5090685;27;66881;-67
2023/02/16 05:33:31;;;;;;;;;19.75;16.00;;;;;21.17;35.26;101846.31;5081080;27;53048;-67
2023/02/16 05:35:56;;;;;;;;;18.50;16.00;;;;;21.16;35.31;101852.59;5090843;27;62630;-67
2023/02/16 05:38:21;;;;;;;;;19.00;16.75;;;;;21.17;35.31;101846.31;5096607;27;56288;-67
2023/02/16 05:40:47;;;;;;;;;18.50;15.50;;;;;21.16;35.11;101846.38;5099039;27;45441;-67
2023/02/16 05:43:12;;;;;;;;;16.25;13.00;;;;;21.16;35.02;101847.28;5094143;27;46314;-67
2023/02/16 05:45:37;;;;;;;;;15.50;15.25;;;;;21.14;34.89;101851.81;5091143;27;45407;-67
2023/02/16 05:48:03;;;;;;;;;17.75;14.00;;;;;21.14;35.38;101850.94;5091138;27;52979;-67
2023/02/16 05:50:28;;;;;;;;;19.75;13.50;;;;;21.14;35.00;101845.59;5098212;27;62593;-67
2023/02/16 05:52:53;;;;;;;;;18.75;14.75;;;;;21.12;35.26;101847.50;5094761;27;61489;-67
2023/02/16 05:55:19;;;;;;;;;21.50;15.75;;;;;21.12;35.04;101836.84;5098325;27;57123;-67
2023/02/16 05:57:44;;;;;;;;;22.00;18.25;;;;;21.11;35.09;101841.31;5096467;27;58796;-67
2023/02/16 06:00:10;;;;;;;;;21.50;15.00;;;;;21.11;34.89;101833.34;5097500;27;45390;-67
2023/02/16 06:02:35;;;;;;;;;16.50;14.75;;;;;21.12;34.88;101839.50;5089091;27;46946;-67
2023/02/16 06:05:01;;;;;;;;;19.00;14.00;;;;;21.12;35.28;101842.19;5090159;27;45370;-67
2023/02/16 06:07:26;;;;;;;;;15.00;13.00;;;;;21.11;35.36;101840.47;5096379;27;55775;-67
2023/02/16 06:09:54;;;;;;;;;16.00;15.00;;;;;21.10;35.37;101836.09;5100551;27;56779;-67
2023/02/16 06:12:20;;;;;;;;;16.75;14.00;;;;;21.13;35.29;101843.91;5097339;27;45659;-67
2023/02/16 06:14:45;;;;;;;;;14.75;13.00;;;;;21.12;35.37;101844.84;5088022;27;45383;-67
2023/02/16 06:17:10;;;;;;;;;16.00;13.25;;;;;21.10;35.04;101838.75;5095406;27;57287;-67
2023/02/16 06:19:36;;;;;;;;;17.00;13.00;;;;;21.07;35.48;101838.91;5091143;27;45470;-67
2023/02/16 06:22:01;;;;;;;;;14.75;12.00;;;;;21.13;35.33;101844.75;5095745;27;45299;-68
2023/02/16 06:24:30;;;;;;;;;14.50;13.25;;;;;21.13;35.57;101838.59;5093968;27;57291;-67
2023/02/16 06:26:56;;;;;;;;;18.75;16.00;;;;;21.12;35.08;101839.50;5086354;27;45252;-67
2023/02/16 06:29:21;;;;;;;;;15.00;13.50;;;;;21.12;35.34;101847.50;5090918;27;45326;-67
2023/02/16 06:31:50;;;;;;;;;15.75;12.75;;;;;21.16;35.18;101855.25;5089300;27;45726;-67
2023/02/16 06:34:15;;;;;;;;;15.00;13.00;;;;;21.17;35.18;101859.63;5091423;27;45509;-68
2023/02/16 06:36:40;;;;;;;;;14.00;13.00;;;;;21.15;35.30;101858.84;5094180;27;45827;-67
2023/02/16 06:39:06;;;;;;;;;16.25;13.00;;;;;21.19;35.84;101865.72;5081945;27;50799;-68
2023/02/16 06:41:34;;;;;;;;;16.00;13.00;;;;;21.20;36.01;101869.25;5089835;27;45432;-69
2023/02/16 06:44:01;;;;;;;;;13.00;11.00;;;;;21.19;35.58;101865.72;5095236;27;45454;-69
2023/02/16 06:46:27;;;;;;;;;13.00;12.50;;;;;21.23;35.95;101877.09;5102617;27;45925;-71
2023/02/16 06:48:52;;;;;;;;;19.00;16.00;;;;;21.24;36.44;101876.97;5078409;27;45177;-71
2023/02/16 06:51:18;;;;;;;;;21.75;16.00;;;;;21.22;36.07;101873.53;5091626;27;55755;-71
2023/02/16 06:53:44;;;;;;;;;14.75;14.25;;;;;21.27;36.55;101883.97;5072603;27;45702;-71
2023/02/16 06:56:09;;;;;;;;;18.00;13.25;;;;;21.32;36.18;101889.91;5092487;27;45608;-71
2023/02/16 06:58:34;;;;;;;;;16.75;12.75;;;;;21.32;36.04;101889.00;5096134;27;61242;-70
2023/02/16 07:01:00;;;;;;;;;14.50;12.75;;;;;21.32;36.11;101894.34;5084518;27;54278;-69
2023/02/16 07:03:25;;;;;;;;;13.00;13.00;;;;;21.34;35.97;101903.13;5086905;27;59287;-72
2023/02/16 07:05:50;;;;;;;;;14.75;10.75;;;;;21.33;36.29;101899.59;5086412;27;55113;-71
2023/02/16 07:08:16;;;;;;;;;11.00;10.75;;;;;21.35;36.28;101903.03;5099076;27;45685;-71
2023/02/16 07:10:45;;;;;;;;;15.00;12.75;;;;;21.35;36.02;101899.50;5087214;27;46442;-69
2023/02/16 07:13:10;;;;;;;;;13.25;12.75;;;;;21.41;36.36;101915.19;5090172;27;45764;-71
2023/02/16 07:15:36;;;;;;;;;12.00;12.00;;;;;21.41;36.64;101907.19;5091229;27;45543;-68
2023/02/16 07:18:02;;;;;;;;;13.50;11.50;;;;;21.41;36.64;101901.84;5081298;27;45450;-71
2023/02/16 07:20:29;;;;;;;;;11.00;11.00;;;;;21.38;36.96;101902.00;5093038;27;46231;-70
2023/02/16 07:22:55;;;;;;;;;10.75;8.75;;;;;21.40;37.10;101916.94;5084181;27;46005;-70
2023/02/16 07:25:20;;;;;;;;;11.50;10.75;;;;;21.33;37.02;101907.56;5096033;27;45505;-70
2023/02/16 07:27:46;;;;;;;;;17.25;13.25;;;;;21.44;36.73;101920.31;5105642;27;45551;-71
2023/02/16 07:30:13;;;;;;;;;15.00;12.00;;;;;21.43;36.94;101931.94;5096471;27;46012;-71
2023/02/16 07:32:38;;;;;;;;;14.75;11.25;;;;;21.43;37.07;101921.28;5090430;27;45760;-70
2023/02/16 07:35:04;;;;;;;;;17.50;12.50;;;;;21.34;36.88;101909.31;5080863;27;45440;-70
2023/02/16 07:37:29;;;;;;;;;12.50;11.25;;;;;21.39;36.65;101912.59;5096299;27;45321;-69
2023/02/16 07:39:55;;;;;;;;;15.50;12.25;;;;;21.43;36.64;101924.78;5096442;27;59479;-69
2023/02/16 07:42:20;;;;;;;;;12.75;10.75;;;;;21.45;36.76;101921.19;5093435;27;45459;-69
2023/02/16 07:44:46;;;;;;;;;14.00;11.75;;;;;21.48;36.72;101929.91;5080697;27;45231;-68
2023/02/16 07:47:13;;;;;;;;;15.75;13.25;;;;;21.48;36.46;101924.59;5088071;27;45407;-71
2023/02/16 07:49:39;;;;;;;;;12.00;11.75;;;;;21.52;36.80;101923.47;5088081;27;46479;-72
2023/02/16 07:52:04;;;;;;;;;17.00;12.00;;;;;21.50;36.29;101914.69;5084310;27;45665;-69
2023/02/16 07:54:31;;;;;;;;;14.25;11.00;;;;;21.56;36.55;101922.34;5081976;27;45508;-70
2023/02/16 07:56:57;;;;;;;;;15.75;13.00;;;;;21.58;36.45;101922.25;5083964;27;45575;-71
2023/02/16 07:59:22;;;;;;;;;17.50;13.75;;;;;21.59;36.38;101929.31;5058173;27;46588;-69
2023/02/16 08:01:47;;;;;;;;;14.50;13.75;;;;;21.57;36.81;101920.56;5098571;27;50385;-72
2023/02/16 08:04:13;;;;;;;;;16.00;12.75;;;;;21.59;36.80;101927.50;5091274;27;45493;-70
2023/02/16 08:06:38;;;;;;;;;13.50;12.25;;;;;21.62;36.92;101934.50;5088802;27;45534;-70
2023/02/16 08:09:04;;;;;;;;;10.75;10.75;;;;;21.64;36.75;101939.72;5083988;27;65293;-69
2023/02/16 08:11:29;;;;;;;;;14.00;11.75;;;;;21.62;37.70;101934.50;5084486;27;45298;-70
2023/02/16 08:13:57;;;;;;;;;13.00;11.75;;;;;21.65;38.77;101942.28;5089319;27;45487;-70
2023/02/16 08:16:25;;;;;;;;;16.50;12.25;;;;;21.67;39.12;101950.22;5094046;27;45506;-69
2023/02/16 08:24:36;;;;;;;;;18.00;13.00;;;;;21.55;40.72;101943.75;5105233;27;45378;-78
2023/02/16 08:27:04;;;;;;;;;15.75;14.00;;;;;21.69;40.37;101945.66;5072028;27;47316;-81
2023/02/16 08:29:30;;;;;;;;;16.00;10.75;;;;;21.81;39.99;101952.97;5105558;27;45395;-70
2023/02/16 08:31:56;;;;;;;;;11.50;10.50;;;;;21.93;40.49;101941.63;5079427;27;45318;-71
2023/02/16 08:34:22;;;;;;;;;14.50;12.00;;;;;22.04;40.19;101940.19;5089477;27;46417;-70
2023/02/16 08:36:55;;;;;;;;;16.25;12.50;;;;;22.09;39.90;101927.44;5075712;27;45467;-74
2023/02/16 08:39:23;;;;;;;;;15.25;12.75;;;;;22.19;39.14;101924.19;5065390;27;47885;-79
2023/02/16 08:41:57;;;;;;;;;16.00;14.50;;;;;22.28;39.02;101921.97;5083031;27;45356;-79
2023/02/16 08:44:24;;;;;;;;;15.75;13.75;;;;;22.32;39.03;101915.50;5117531;27;47578;-84
2023/02/16 08:46:52;;;;;;;;;15.50;14.00;;;;;22.42;39.01;101915.84;5103008;27;45872;-75
2023/02/16 08:49:18;;;;;;;;;13.00;11.25;;;;;22.35;38.78;101902.84;5087616;27;45498;-76
2023/02/16 08:51:47;;;;;;;;;16.75;12.00;;;;;22.52;38.06;101914.34;5082725;27;45481;-77
2023/02/16 08:54:21;;;;;;;;;16.25;15.25;;;;;22.42;38.43;101890.03;5107259;27;46076;-75
2023/02/16 08:56:48;;;;;;;;;17.50;12.75;;;;;22.42;38.40;101891.84;5081787;27;45388;-77
2023/02/16 08:59:15;;;;;;;;;12.00;9.75;;;;;22.58;38.21;101910.47;5097057;27;45699;-76
2023/02/16 09:01:43;;;;;;;;;11.50;11.50;;;;;22.64;38.01;101921.63;5071218;27;45573;-74
2023/02/16 09:04:11;;;;;;;;;18.25;14.00;;;;;22.62;37.64;101907.50;5072869;27;47097;-81
2023/02/16 09:06:39;;;;;;;;;15.25;13.25;;;;;22.58;37.71;101906.00;5092134;27;45452;-75
2023/02/16 09:09:05;;;;;;;;;14.25;12.25;;;;;22.68;37.62;101935.63;5098288;27;45507;-72
2023/02/16 09:11:31;;;;;;;;;15.75;12.00;;;;;22.57;37.52;101909.59;5086058;27;45560;-76
2023/02/16 09:13:59;;;;;;;;;13.50;11.00;;;;;22.66;37.86;101934.88;5070628;27;47315;-82
2023/02/16 09:16:32;;;;;;;;;13.50;11.25;;;;;22.80;37.92;101966.09;5076443;27;45378;-85
2023/02/16 09:19:00;;;;;;;;;14.25;10.25;;;;;22.76;37.86;101949.41;5071014;27;45609;-85
2023/02/16 09:21:25;;;;;;;;;16.00;10.25;;;;;22.83;37.64;101957.91;5102400;27;45521;-89
2023/02/16 09:23:54;;;;;;;;;13.50;10.50;;;;;22.87;37.78;101967.44;5102053;27;47939;-83
2023/02/16 09:26:24;;;;;;;;;11.50;10.00;;;;;22.74;37.54;101937.97;5094032;27;45882;-84
2023/02/16 09:28:50;;;;;;;;;12.50;9.75;;;;;22.89;38.00;101977.06;5070836;27;45552;-84
2023/02/16 09:31:28;;;;;;;;;14.00;12.00;;;;;22.83;37.56;101965.91;5084252;27;45598;-78
2023/02/16 09:33:56;;;;;;;;;13.25;12.75;;;;;22.84;37.66;101964.94;5073896;27;45852;-79
2023/02/16 09:36:22;;;;;;;;;10.00;9.75;;;;;22.94;37.08;101963.44;5072413;27;45402;-81
2023/02/16 09:38:48;;;;;;;;;9.50;8.25;;;;;22.83;37.38;101945.41;5077504;27;45443;-86
2023/02/16 09:41:51;;;;;;;;;12.75;12.25;;;;;22.86;37.37;101944.34;5058097;28;46832;-77
2023/02/16 09:44:20;;;;;;;;;12.25;11.00;;;;;22.99;36.89;101958.69;5048930;28;47103;-77
2023/02/16 09:46:47;;;;;;;;;10.25;10.25;;;;;22.97;37.37;101946.41;5067471;27;46040;-75
2023/02/16 09:49:24;;;;;;;;;14.50;11.25;;;;;22.97;37.15;101954.41;5072002;27;45521;-77
2023/02/16 09:51:55;;;;;;;;;12.25;11.25;;;;;23.00;36.77;101962.22;5068427;27;45700;-77
2023/02/16 09:54:41;;;;;;;;;14.50;12.75;;;;;23.05;36.83;101965.50;5057237;27;48494;-74
2023/02/16 09:57:35;;;;;;;;;17.50;14.50;;;;;22.91;36.96;101940.47;5103456;27;45443;-73
2023/02/16 10:00:07;;;;;;;;;13.00;11.75;;;;;23.08;36.72;101963.50;5097654;27;45843;-76
2023/02/16 10:02:53;;;;;;;;;14.75;13.00;;;;;22.93;36.67;101951.06;5069122;28;45462;-76
2023/02/16 10:05:47;;;;;;;;;17.75;13.75;;;;;23.09;36.51;101967.91;5077626;27;45485;-74
2023/02/16 10:08:15;;;;;;;;;14.00;12.75;;;;;23.11;36.71;101979.34;5091580;27;45770;-75
2023/02/16 10:11:00;;;;;;;;;15.25;12.75;;;;;23.11;36.91;101968.69;5063484;27;45391;-86
2023/02/16 10:13:36;;;;;;;;;17.75;13.75;;;;;23.11;36.87;101978.50;5065207;27;46437;-84
2023/02/16 10:16:04;;;;;;;;;13.00;12.00;;;;;22.98;36.28;101959.63;5096937;27;46317;-82
2023/02/16 10:18:42;;;;;;;;;10.50;10.25;;;;;23.09;36.51;101981.25;5059334;28;45399;-75
2023/02/16 10:21:14;;;;;;;;;17.75;11.00;;;;;23.02;36.48;101952.31;5073670;27;45516;-83
2023/02/16 10:23:47;;;;;;;;;14.00;12.00;;;;;23.12;36.62;101980.22;5083913;27;45607;-85
2023/02/16 10:26:16;;;;;;;;;12.50;11.25;;;;;23.13;36.77;101977.44;5074496;27;45493;-82
2023/02/16 10:29:07;;;;;;;;;15.00;12.00;;;;;23.15;36.40;101973.84;5067391;27;45762;-82
2023/02/16 10:31:42;;;;;;;;;10.00;9.50;;;;;23.16;36.26;101978.22;5075988;27;45358;-78
2023/02/16 10:34:17;;;;;;;;;12.25;11.25;;;;;23.17;36.19;101975.44;5070596;27;45438;-81
2023/02/16 10:37:16;;;;;;;;;13.00;10.25;;;;;23.19;36.51;101983.38;5079291;27;47284;-81
2023/02/16 10:40:15;;;;;;;;;14.25;12.75;;;;;23.21;36.51;101984.13;5088212;27;45448;-87
2023/02/16 10:42:48;;;;;;;;;14.50;12.50;;;;;23.22;36.63;101969.84;5106569;27;45326;-88
2023/02/16 10:45:22;;;;;;;;;14.50;13.25;;;;;23.18;36.33;101981.63;5055823;27;45535;-82
2023/02/16 10:47:48;;;;;;;;;13.50;12.00;;;;;23.18;36.80;101977.19;5075557;27;46301;-92
2023/02/16 10:50:22;;;;;;;;;15.50;12.25;;;;;23.11;36.44;101970.50;5072613;28;45496;-81
2023/02/16 10:52:48;;;;;;;;;19.75;14.75;;;;;23.11;36.24;101960.66;5084963;27;45485;-80
2023/02/16 10:55:15;;;;;;;;;16.75;10.75;;;;;23.21;36.38;101968.97;5081076;27;45482;-80
2023/02/16 10:57:41;;;;;;;;;13.75;12.75;;;;;23.10;36.26;101955.41;5072516;27;46457;-79
2023/02/16 11:00:12;;;;;;;;;15.50;12.50;;;;;23.24;36.55;101965.25;5073080;27;50188;-79
2023/02/16 11:02:41;;;;;;;;;14.00;13.25;;;;;23.13;36.08;101958.75;5073322;27;45330;-81
2023/02/16 11:05:25;;;;;;;;;14.00;12.50;;;;;23.20;36.19;101969.94;5066602;27;45669;-81
2023/02/16 11:08:01;;;;;;;;;17.75;12.25;;;;;23.11;35.84;101954.47;5119274;27;47187;-78
2023/02/16 11:10:49;;;;;;;;;12.75;12.00;;;;;23.24;35.94;101974.13;5074673;27;45401;-77
2023/02/16 11:13:31;;;;;;;;;13.00;11.25;;;;;23.22;36.21;101973.38;5075377;27;45470;-76
2023/02/16 11:16:01;;;;;;;;;11.25;10.25;;;;;23.25;35.99;101972.34;5089817;27;45484;-77
2023/02/16 11:18:38;;;;;;;;;13.50;11.25;;;;;23.25;36.03;101977.69;5083444;27;47487;-79
2023/02/16 11:21:05;;;;;;;;;14.00;12.00;;;;;23.21;36.11;101970.78;5070421;27;46129;-81
2023/02/16 11:23:33;;;;;;;;;15.00;13.00;;;;;23.18;36.26;101954.94;5057384;27;45736;-82
2023/02/16 11:26:23;;;;;;;;;12.50;11.25;;;;;23.13;35.92;101948.06;5056730;27;46418;-82
2023/02/16 11:28:49;;;;;;;;;10.50;10.50;;;;;23.12;36.40;101951.72;5059288;27;45637;-82
2023/02/16 11:31:29;;;;;;;;;11.75;9.50;;;;;23.14;36.30;101948.91;5078693;27;45373;-84
2023/02/16 11:34:15;;;;;;;;;14.50;13.25;;;;;23.22;36.04;101961.84;5051465;28;45436;-73
2023/02/16 11:36:43;;;;;;;;;13.00;11.25;;;;;23.24;36.48;101967.94;5086771;27;45572;-71
2023/02/16 11:39:29;;;;;;;;;14.75;13.75;;;;;23.19;36.38;101949.50;5055421;27;48248;-73
2023/02/16 11:42:02;;;;;;;;;16.00;13.75;;;;;23.24;36.34;101958.09;5090384;27;45580;-81
2023/02/16 11:44:43;;;;;;;;;15.50;13.50;;;;;23.22;36.61;101941.31;5061636;27;45633;-74
2023/02/16 11:47:27;;;;;;;;;7.75;7.75;;;;;23.26;37.17;101960.69;5063444;27;45512;-79
2023/02/16 11:50:18;;;;;;;;;11.25;10.00;;;;;23.28;36.85;101956.97;5075006;28;45554;-74
2023/02/16 11:52:45;;;;;;;;;9.00;8.50;;;;;23.29;37.35;101949.81;5071392;27;45634;-73
2023/02/16 11:55:26;;;;;;;;;12.00;12.00;;;;;23.24;37.17;101934.06;5072187;27;45448;-73
2023/02/16 11:57:53;;;;;;;;;13.50;10.00;;;;;23.29;37.12;101937.31;5076086;28;45721;-73
2023/02/16 12:00:23;;;;;;;;;12.00;10.25;;;;;23.29;37.57;101923.09;5058149;28;47872;-73
2023/02/16 12:03:13;;;;;;;;;9.75;8.00;;;;;23.31;37.26;101927.38;5061743;28;45898;-76
2023/02/16 12:05:57;;;;;;;;;10.00;9.50;;;;;23.31;37.46;101924.72;5069097;27;45555;-74
2023/02/16 12:08:50;;;;;;;;;9.75;8.75;;;;;23.31;37.58;101924.72;5071855;27;45434;-77
2023/02/16 12:11:24;;;;;;;;;11.50;7.50;;;;;23.31;37.67;101922.03;5064059;27;48529;-75
2023/02/16 12:14:18;;;;;;;;;8.00;7.25;;;;;23.32;37.74;101920.25;5071805;27;45295;-76
2023/02/16 12:17:08;;;;;;;;;9.75;9.75;;;;;23.33;37.71;101915.75;5057236;27;45461;-75